sensor_id;sensor_type;location;lat;lon;timestamp;P1;durP1;ratioP1;P2;durP2;ratioP2
82703;SDS011;72427;42.000;21.464;2024-03-08T00:00:43;12.00;;;7.10;;
82703;SDS011;72427;42.000;21.464;2024-03-08T00:03:09;30.17;;;18.90;;
82703;SDS011;72427;42.000;21.464;2024-03-08T00:05:35;35.22;;;21.00;;
82703;SDS011;72427;42.000;21.464;2024-03-08T00:08:04;44.30;;;24.10;;
82703;SDS011;72427;42.000;21.464;2024-03-08T00:10:30;47.83;;;29.02;;
82703;SDS011;72427;42.000;21.464;2024-03-08T00:12:56;51.88;;;30.73;;
82703;SDS011;72427;42.000;21.464;2024-03-08T00:15:22;48.67;;;29.85;;
82703;SDS011;72427;42.000;21.464;2024-03-08T00:17:49;48.78;;;28.65;;
82703;SDS011;72427;42.000;21.464;2024-03-08T00:20:15;45.40;;;27.00;;
82703;SDS011;72427;42.000;21.464;2024-03-08T00:25:11;43.88;;;25.13;;
82703;SDS011;72427;42.000;21.464;2024-03-08T00:27:37;40.58;;;24.83;;
82703;SDS011;72427;42.000;21.464;2024-03-08T00:30:03;42.70;;;24.33;;
82703;SDS011;72427;42.000;21.464;2024-03-08T00:32:30;39.58;;;24.60;;
82703;SDS011;72427;42.000;21.464;2024-03-08T00:34:57;30.40;;;16.98;;
82703;SDS011;72427;42.000;21.464;2024-03-08T00:37:23;34.63;;;20.75;;
82703;SDS011;72427;42.000;21.464;2024-03-08T00:39:50;36.33;;;20.58;;
82703;SDS011;72427;42.000;21.464;2024-03-08T00:42:16;35.13;;;20.30;;
82703;SDS011;72427;42.000;21.464;2024-03-08T00:44:42;37.30;;;22.58;;
82703;SDS011;72427;42.000;21.464;2024-03-08T00:47:08;36.40;;;22.13;;
82703;SDS011;72427;42.000;21.464;2024-03-08T00:49:35;41.95;;;24.05;;
82703;SDS011;72427;42.000;21.464;2024-03-08T00:52:07;40.65;;;24.23;;
82703;SDS011;72427;42.000;21.464;2024-03-08T00:54:33;39.17;;;22.50;;
82703;SDS011;72427;42.000;21.464;2024-03-08T00:57:01;35.33;;;21.25;;
82703;SDS011;72427;42.000;21.464;2024-03-08T00:59:28;38.88;;;21.48;;
82703;SDS011;72427;42.000;21.464;2024-03-08T01:01:54;35.65;;;20.40;;
82703;SDS011;72427;42.000;21.464;2024-03-08T01:04:20;31.77;;;18.90;;
82703;SDS011;72427;42.000;21.464;2024-03-08T01:06:48;26.77;;;14.43;;
82703;SDS011;72427;42.000;21.464;2024-03-08T01:09:14;30.30;;;16.60;;
82703;SDS011;72427;42.000;21.464;2024-03-08T01:11:42;29.75;;;16.27;;
82703;SDS011;72427;42.000;21.464;2024-03-08T01:14:08;26.55;;;14.95;;
82703;SDS011;72427;42.000;21.464;2024-03-08T01:16:34;26.40;;;12.85;;
82703;SDS011;72427;42.000;21.464;2024-03-08T01:19:00;27.63;;;13.73;;
82703;SDS011;72427;42.000;21.464;2024-03-08T01:21:28;25.80;;;12.85;;
82703;SDS011;72427;42.000;21.464;2024-03-08T01:23:54;22.17;;;12.63;;
82703;SDS011;72427;42.000;21.464;2024-03-08T01:26:20;20.05;;;11.75;;
82703;SDS011;72427;42.000;21.464;2024-03-08T01:28:46;21.25;;;11.65;;
82703;SDS011;72427;42.000;21.464;2024-03-08T01:31:12;18.98;;;10.38;;
82703;SDS011;72427;42.000;21.464;2024-03-08T01:33:38;20.02;;;8.55;;
82703;SDS011;72427;42.000;21.464;2024-03-08T01:36:05;18.17;;;9.80;;
82703;SDS011;72427;42.000;21.464;2024-03-08T01:38:31;17.52;;;8.60;;
82703;SDS011;72427;42.000;21.464;2024-03-08T01:40:57;18.30;;;9.23;;
82703;SDS011;72427;42.000;21.464;2024-03-08T01:43:26;17.65;;;9.70;;
82703;SDS011;72427;42.000;21.464;2024-03-08T01:45:57;16.67;;;8.80;;
82703;SDS011;72427;42.000;21.464;2024-03-08T01:48:29;20.00;;;9.65;;
82703;SDS011;72427;42.000;21.464;2024-03-08T01:50:56;21.77;;;9.23;;
82703;SDS011;72427;42.000;21.464;2024-03-08T01:53:29;21.85;;;10.27;;
82703;SDS011;72427;42.000;21.464;2024-03-08T01:55:56;17.02;;;8.63;;
82703;SDS011;72427;42.000;21.464;2024-03-08T01:58:23;19.63;;;9.70;;
82703;SDS011;72427;42.000;21.464;2024-03-08T02:00:49;19.95;;;9.95;;
82703;SDS011;72427;42.000;21.464;2024-03-08T02:03:16;19.45;;;9.80;;
82703;SDS011;72427;42.000;21.464;2024-03-08T02:05:42;19.35;;;9.30;;
82703;SDS011;72427;42.000;21.464;2024-03-08T02:08:08;17.98;;;9.63;;
82703;SDS011;72427;42.000;21.464;2024-03-08T02:10:43;16.35;;;9.07;;
82703;SDS011;72427;42.000;21.464;2024-03-08T02:13:10;17.48;;;9.02;;
82703;SDS011;72427;42.000;21.464;2024-03-08T02:18:21;18.83;;;8.95;;
82703;SDS011;72427;42.000;21.464;2024-03-08T02:20:48;17.13;;;9.38;;
82703;SDS011;72427;42.000;21.464;2024-03-08T02:23:15;17.95;;;8.48;;
82703;SDS011;72427;42.000;21.464;2024-03-08T02:25:41;21.00;;;9.05;;
82703;SDS011;72427;42.000;21.464;2024-03-08T02:28:08;18.45;;;8.68;;
82703;SDS011;72427;42.000;21.464;2024-03-08T02:30:35;16.38;;;8.85;;
82703;SDS011;72427;42.000;21.464;2024-03-08T02:33:01;16.15;;;8.65;;
82703;SDS011;72427;42.000;21.464;2024-03-08T02:35:27;17.92;;;8.77;;
82703;SDS011;72427;42.000;21.464;2024-03-08T02:37:53;15.80;;;8.15;;
82703;SDS011;72427;42.000;21.464;2024-03-08T02:40:19;16.17;;;6.85;;
82703;SDS011;72427;42.000;21.464;2024-03-08T02:42:46;16.10;;;8.40;;
82703;SDS011;72427;42.000;21.464;2024-03-08T02:45:12;16.70;;;8.88;;
82703;SDS011;72427;42.000;21.464;2024-03-08T02:47:38;16.83;;;8.65;;
82703;SDS011;72427;42.000;21.464;2024-03-08T02:50:05;17.23;;;8.32;;
82703;SDS011;72427;42.000;21.464;2024-03-08T02:52:33;14.60;;;8.25;;
82703;SDS011;72427;42.000;21.464;2024-03-08T02:55:00;14.48;;;7.63;;
82703;SDS011;72427;42.000;21.464;2024-03-08T02:57:26;14.95;;;8.07;;
82703;SDS011;72427;42.000;21.464;2024-03-08T02:59:53;17.63;;;8.23;;
82703;SDS011;72427;42.000;21.464;2024-03-08T03:02:19;20.38;;;8.68;;
82703;SDS011;72427;42.000;21.464;2024-03-08T03:04:46;16.13;;;8.25;;
82703;SDS011;72427;42.000;21.464;2024-03-08T03:07:13;17.17;;;8.00;;
82703;SDS011;72427;42.000;21.464;2024-03-08T03:09:39;17.17;;;8.23;;
82703;SDS011;72427;42.000;21.464;2024-03-08T03:12:05;17.73;;;9.40;;
82703;SDS011;72427;42.000;21.464;2024-03-08T03:14:34;19.40;;;8.55;;
82703;SDS011;72427;42.000;21.464;2024-03-08T03:17:03;17.52;;;9.15;;
82703;SDS011;72427;42.000;21.464;2024-03-08T03:19:29;16.55;;;8.70;;
82703;SDS011;72427;42.000;21.464;2024-03-08T03:21:56;19.13;;;9.23;;
82703;SDS011;72427;42.000;21.464;2024-03-08T03:24:22;18.20;;;8.90;;
82703;SDS011;72427;42.000;21.464;2024-03-08T03:26:48;18.92;;;10.13;;
82703;SDS011;72427;42.000;21.464;2024-03-08T03:29:14;18.55;;;9.43;;
82703;SDS011;72427;42.000;21.464;2024-03-08T03:31:42;21.08;;;9.43;;
82703;SDS011;72427;42.000;21.464;2024-03-08T03:34:11;19.80;;;9.45;;
82703;SDS011;72427;42.000;21.464;2024-03-08T03:36:37;19.60;;;9.63;;
82703;SDS011;72427;42.000;21.464;2024-03-08T03:39:07;18.67;;;9.32;;
82703;SDS011;72427;42.000;21.464;2024-03-08T03:41:40;20.50;;;9.45;;
82703;SDS011;72427;42.000;21.464;2024-03-08T03:44:06;19.73;;;10.50;;
82703;SDS011;72427;42.000;21.464;2024-03-08T03:46:33;22.73;;;9.90;;
82703;SDS011;72427;42.000;21.464;2024-03-08T03:48:59;18.80;;;10.32;;
82703;SDS011;72427;42.000;21.464;2024-03-08T03:51:25;20.48;;;10.07;;
82703;SDS011;72427;42.000;21.464;2024-03-08T03:53:51;17.30;;;9.88;;
82703;SDS011;72427;42.000;21.464;2024-03-08T03:56:18;19.73;;;10.10;;
82703;SDS011;72427;42.000;21.464;2024-03-08T03:58:44;17.85;;;9.45;;
82703;SDS011;72427;42.000;21.464;2024-03-08T04:01:10;21.45;;;9.77;;
82703;SDS011;72427;42.000;21.464;2024-03-08T04:03:36;17.95;;;9.57;;
82703;SDS011;72427;42.000;21.464;2024-03-08T04:06:05;17.33;;;9.32;;
82703;SDS011;72427;42.000;21.464;2024-03-08T04:08:31;21.33;;;9.55;;
82703;SDS011;72427;42.000;21.464;2024-03-08T04:10:59;18.38;;;9.98;;
82703;SDS011;72427;42.000;21.464;2024-03-08T04:13:25;17.60;;;9.13;;
82703;SDS011;72427;42.000;21.464;2024-03-08T04:15:51;17.45;;;9.30;;
82703;SDS011;72427;42.000;21.464;2024-03-08T04:18:17;21.23;;;10.50;;
82703;SDS011;72427;42.000;21.464;2024-03-08T04:20:44;20.83;;;11.48;;
82703;SDS011;72427;42.000;21.464;2024-03-08T04:23:10;21.63;;;11.13;;
82703;SDS011;72427;42.000;21.464;2024-03-08T04:25:36;22.10;;;11.38;;
82703;SDS011;72427;42.000;21.464;2024-03-08T04:28:02;22.23;;;10.68;;
82703;SDS011;72427;42.000;21.464;2024-03-08T04:30:28;24.25;;;12.27;;
82703;SDS011;72427;42.000;21.464;2024-03-08T04:32:55;20.70;;;11.40;;
82703;SDS011;72427;42.000;21.464;2024-03-08T04:35:22;22.95;;;11.88;;
82703;SDS011;72427;42.000;21.464;2024-03-08T04:37:48;20.77;;;11.70;;
82703;SDS011;72427;42.000;21.464;2024-03-08T04:40:14;27.20;;;13.38;;
82703;SDS011;72427;42.000;21.464;2024-03-08T04:42:40;22.77;;;12.40;;
82703;SDS011;72427;42.000;21.464;2024-03-08T04:45:06;25.83;;;13.27;;
82703;SDS011;72427;42.000;21.464;2024-03-08T04:47:38;23.50;;;13.07;;
82703;SDS011;72427;42.000;21.464;2024-03-08T04:50:05;30.15;;;16.00;;
82703;SDS011;72427;42.000;21.464;2024-03-08T04:52:31;26.17;;;15.15;;
82703;SDS011;72427;42.000;21.464;2024-03-08T04:54:57;23.27;;;12.55;;
82703;SDS011;72427;42.000;21.464;2024-03-08T04:57:23;41.05;;;20.52;;
82703;SDS011;72427;42.000;21.464;2024-03-08T04:59:50;30.10;;;19.42;;
82703;SDS011;72427;42.000;21.464;2024-03-08T05:02:16;19.65;;;10.85;;
82703;SDS011;72427;42.000;21.464;2024-03-08T05:04:43;19.65;;;10.38;;
82703;SDS011;72427;42.000;21.464;2024-03-08T05:07:09;19.63;;;10.77;;
82703;SDS011;72427;42.000;21.464;2024-03-08T05:09:35;20.58;;;10.77;;
82703;SDS011;72427;42.000;21.464;2024-03-08T05:12:01;25.60;;;12.77;;
82703;SDS011;72427;42.000;21.464;2024-03-08T05:14:27;23.20;;;11.77;;
82703;SDS011;72427;42.000;21.464;2024-03-08T05:16:53;21.70;;;12.23;;
82703;SDS011;72427;42.000;21.464;2024-03-08T05:19:19;19.48;;;10.52;;
82703;SDS011;72427;42.000;21.464;2024-03-08T05:21:46;24.10;;;11.48;;
82703;SDS011;72427;42.000;21.464;2024-03-08T05:24:13;25.33;;;12.45;;
82703;SDS011;72427;42.000;21.464;2024-03-08T05:26:40;25.80;;;11.45;;
82703;SDS011;72427;42.000;21.464;2024-03-08T05:29:07;28.73;;;12.25;;
82703;SDS011;72427;42.000;21.464;2024-03-08T05:31:47;21.98;;;12.10;;
82703;SDS011;72427;42.000;21.464;2024-03-08T05:34:14;26.08;;;12.23;;
82703;SDS011;72427;42.000;21.464;2024-03-08T05:36:42;28.98;;;13.48;;
82703;SDS011;72427;42.000;21.464;2024-03-08T05:39:10;26.45;;;12.80;;
82703;SDS011;72427;42.000;21.464;2024-03-08T05:41:37;20.00;;;11.02;;
82703;SDS011;72427;42.000;21.464;2024-03-08T05:44:03;20.52;;;10.23;;
82703;SDS011;72427;42.000;21.464;2024-03-08T05:46:29;18.50;;;9.27;;
82703;SDS011;72427;42.000;21.464;2024-03-08T05:48:55;20.20;;;9.73;;
82703;SDS011;72427;42.000;21.464;2024-03-08T05:51:23;18.23;;;9.05;;
82703;SDS011;72427;42.000;21.464;2024-03-08T05:53:51;18.83;;;9.27;;
82703;SDS011;72427;42.000;21.464;2024-03-08T05:56:18;19.77;;;8.93;;
82703;SDS011;72427;42.000;21.464;2024-03-08T05:58:44;17.52;;;9.50;;
82703;SDS011;72427;42.000;21.464;2024-03-08T06:01:10;21.85;;;10.50;;
82703;SDS011;72427;42.000;21.464;2024-03-08T06:03:38;20.42;;;9.90;;
82703;SDS011;72427;42.000;21.464;2024-03-08T06:06:11;18.23;;;9.63;;
82703;SDS011;72427;42.000;21.464;2024-03-08T06:08:37;19.95;;;9.98;;
82703;SDS011;72427;42.000;21.464;2024-03-08T06:11:03;22.23;;;10.40;;
82703;SDS011;72427;42.000;21.464;2024-03-08T06:13:30;23.90;;;10.98;;
82703;SDS011;72427;42.000;21.464;2024-03-08T06:15:56;18.30;;;9.30;;
82703;SDS011;72427;42.000;21.464;2024-03-08T06:18:22;19.98;;;9.90;;
82703;SDS011;72427;42.000;21.464;2024-03-08T06:20:49;19.13;;;11.02;;
82703;SDS011;72427;42.000;21.464;2024-03-08T06:23:15;22.10;;;11.57;;
82703;SDS011;72427;42.000;21.464;2024-03-08T06:25:44;24.60;;;11.77;;
82703;SDS011;72427;42.000;21.464;2024-03-08T06:28:11;24.38;;;11.88;;
82703;SDS011;72427;42.000;21.464;2024-03-08T06:30:37;25.50;;;12.98;;
82703;SDS011;72427;42.000;21.464;2024-03-08T06:33:03;24.60;;;12.40;;
82703;SDS011;72427;42.000;21.464;2024-03-08T06:35:29;19.80;;;10.45;;
82703;SDS011;72427;42.000;21.464;2024-03-08T06:37:57;24.83;;;11.80;;
82703;SDS011;72427;42.000;21.464;2024-03-08T06:40:23;23.55;;;12.10;;
82703;SDS011;72427;42.000;21.464;2024-03-08T06:42:49;22.23;;;12.15;;
82703;SDS011;72427;42.000;21.464;2024-03-08T06:45:17;18.20;;;9.15;;
82703;SDS011;72427;42.000;21.464;2024-03-08T06:47:46;21.27;;;10.40;;
82703;SDS011;72427;42.000;21.464;2024-03-08T06:50:12;18.92;;;10.25;;
82703;SDS011;72427;42.000;21.464;2024-03-08T06:52:40;22.35;;;11.85;;
82703;SDS011;72427;42.000;21.464;2024-03-08T06:55:07;20.33;;;11.55;;
82703;SDS011;72427;42.000;21.464;2024-03-08T06:57:37;21.83;;;12.30;;
82703;SDS011;72427;42.000;21.464;2024-03-08T07:00:05;24.00;;;12.82;;
82703;SDS011;72427;42.000;21.464;2024-03-08T07:02:34;22.38;;;13.05;;
82703;SDS011;72427;42.000;21.464;2024-03-08T07:05:00;25.63;;;14.38;;
82703;SDS011;72427;42.000;21.464;2024-03-08T07:07:26;28.33;;;14.25;;
82703;SDS011;72427;42.000;21.464;2024-03-08T07:09:55;19.20;;;11.52;;
82703;SDS011;72427;42.000;21.464;2024-03-08T07:12:21;18.38;;;11.40;;
82703;SDS011;72427;42.000;21.464;2024-03-08T07:14:48;19.10;;;11.23;;
82703;SDS011;72427;42.000;21.464;2024-03-08T07:17:14;24.45;;;12.20;;
82703;SDS011;72427;42.000;21.464;2024-03-08T07:19:41;20.73;;;12.18;;
82703;SDS011;72427;42.000;21.464;2024-03-08T07:22:07;21.80;;;12.10;;
82703;SDS011;72427;42.000;21.464;2024-03-08T07:24:34;25.63;;;12.57;;
82703;SDS011;72427;42.000;21.464;2024-03-08T07:27:19;20.55;;;12.73;;
82703;SDS011;72427;42.000;21.464;2024-03-08T07:29:45;20.52;;;13.07;;
82703;SDS011;72427;42.000;21.464;2024-03-08T07:32:11;21.65;;;12.70;;
82703;SDS011;72427;42.000;21.464;2024-03-08T07:34:46;21.10;;;12.25;;
82703;SDS011;72427;42.000;21.464;2024-03-08T07:37:13;18.50;;;13.13;;
82703;SDS011;72427;42.000;21.464;2024-03-08T07:39:39;22.95;;;12.63;;
82703;SDS011;72427;42.000;21.464;2024-03-08T07:42:05;20.17;;;11.70;;
82703;SDS011;72427;42.000;21.464;2024-03-08T07:44:31;21.15;;;12.73;;
82703;SDS011;72427;42.000;21.464;2024-03-08T07:46:57;19.45;;;12.32;;
82703;SDS011;72427;42.000;21.464;2024-03-08T07:49:24;21.00;;;12.93;;
82703;SDS011;72427;42.000;21.464;2024-03-08T07:51:50;22.10;;;13.38;;
82703;SDS011;72427;42.000;21.464;2024-03-08T07:54:16;20.05;;;12.45;;
82703;SDS011;72427;42.000;21.464;2024-03-08T07:56:43;21.20;;;12.40;;
82703;SDS011;72427;42.000;21.464;2024-03-08T07:59:09;25.02;;;13.68;;
82703;SDS011;72427;42.000;21.464;2024-03-08T08:01:37;21.00;;;14.07;;
82703;SDS011;72427;42.000;21.464;2024-03-08T08:04:03;19.92;;;13.00;;
82703;SDS011;72427;42.000;21.464;2024-03-08T08:06:29;20.77;;;13.38;;
82703;SDS011;72427;42.000;21.464;2024-03-08T08:08:58;24.85;;;14.15;;
82703;SDS011;72427;42.000;21.464;2024-03-08T08:11:27;24.13;;;14.98;;
82703;SDS011;72427;42.000;21.464;2024-03-08T08:13:54;21.88;;;13.93;;
82703;SDS011;72427;42.000;21.464;2024-03-08T08:16:20;27.48;;;17.52;;
82703;SDS011;72427;42.000;21.464;2024-03-08T08:18:46;26.95;;;19.60;;
82703;SDS011;72427;42.000;21.464;2024-03-08T08:21:13;24.33;;;14.48;;
82703;SDS011;72427;42.000;21.464;2024-03-08T08:23:39;21.02;;;14.48;;
82703;SDS011;72427;42.000;21.464;2024-03-08T08:26:05;25.77;;;14.95;;
82703;SDS011;72427;42.000;21.464;2024-03-08T08:28:32;21.63;;;14.05;;
82703;SDS011;72427;42.000;21.464;2024-03-08T08:30:58;22.27;;;14.55;;
82703;SDS011;72427;42.000;21.464;2024-03-08T08:33:25;75.10;;;51.92;;
82703;SDS011;72427;42.000;21.464;2024-03-08T08:35:51;20.35;;;13.85;;
82703;SDS011;72427;42.000;21.464;2024-03-08T08:38:19;20.85;;;12.93;;
82703;SDS011;72427;42.000;21.464;2024-03-08T08:40:45;24.83;;;13.63;;
82703;SDS011;72427;42.000;21.464;2024-03-08T08:43:12;22.60;;;13.50;;
82703;SDS011;72427;42.000;21.464;2024-03-08T08:45:39;23.85;;;13.48;;
82703;SDS011;72427;42.000;21.464;2024-03-08T08:48:05;19.10;;;13.27;;
82703;SDS011;72427;42.000;21.464;2024-03-08T08:50:31;22.13;;;14.05;;
82703;SDS011;72427;42.000;21.464;2024-03-08T08:52:57;20.17;;;13.68;;
82703;SDS011;72427;42.000;21.464;2024-03-08T08:55:24;19.23;;;13.07;;
82703;SDS011;72427;42.000;21.464;2024-03-08T08:57:52;19.52;;;14.40;;
82703;SDS011;72427;42.000;21.464;2024-03-08T09:00:21;20.90;;;13.88;;
82703;SDS011;72427;42.000;21.464;2024-03-08T09:02:51;20.85;;;13.77;;
82703;SDS011;72427;42.000;21.464;2024-03-08T09:05:20;27.23;;;17.23;;
82703;SDS011;72427;42.000;21.464;2024-03-08T09:10:15;20.98;;;13.50;;
82703;SDS011;72427;42.000;21.464;2024-03-08T09:12:41;19.70;;;14.18;;
82703;SDS011;72427;42.000;21.464;2024-03-08T09:15:07;20.23;;;13.55;;
82703;SDS011;72427;42.000;21.464;2024-03-08T09:17:34;20.67;;;13.98;;
82703;SDS011;72427;42.000;21.464;2024-03-08T09:20:00;23.85;;;13.88;;
82703;SDS011;72427;42.000;21.464;2024-03-08T09:22:29;22.05;;;13.98;;
82703;SDS011;72427;42.000;21.464;2024-03-08T09:24:55;21.02;;;13.55;;
82703;SDS011;72427;42.000;21.464;2024-03-08T09:27:22;18.02;;;12.98;;
82703;SDS011;72427;42.000;21.464;2024-03-08T09:29:49;18.83;;;12.93;;
82703;SDS011;72427;42.000;21.464;2024-03-08T09:32:15;18.73;;;12.27;;
82703;SDS011;72427;42.000;21.464;2024-03-08T09:34:41;19.20;;;13.05;;
82703;SDS011;72427;42.000;21.464;2024-03-08T09:37:08;19.48;;;12.57;;
82703;SDS011;72427;42.000;21.464;2024-03-08T09:39:34;18.85;;;11.38;;
82703;SDS011;72427;42.000;21.464;2024-03-08T09:42:03;18.13;;;11.82;;
82703;SDS011;72427;42.000;21.464;2024-03-08T09:44:30;18.70;;;13.20;;
82703;SDS011;72427;42.000;21.464;2024-03-08T09:46:57;17.48;;;11.40;;
82703;SDS011;72427;42.000;21.464;2024-03-08T09:49:23;14.35;;;10.73;;
82703;SDS011;72427;42.000;21.464;2024-03-08T09:51:50;19.67;;;12.68;;
82703;SDS011;72427;42.000;21.464;2024-03-08T09:54:16;18.17;;;11.85;;
82703;SDS011;72427;42.000;21.464;2024-03-08T09:59:11;18.35;;;12.52;;
82703;SDS011;72427;42.000;21.464;2024-03-08T10:01:52;22.23;;;16.05;;
82703;SDS011;72427;42.000;21.464;2024-03-08T10:04:21;19.98;;;12.18;;
82703;SDS011;72427;42.000;21.464;2024-03-08T10:06:47;16.65;;;11.15;;
82703;SDS011;72427;42.000;21.464;2024-03-08T10:09:14;16.13;;;11.20;;
82703;SDS011;72427;42.000;21.464;2024-03-08T10:11:41;19.75;;;14.60;;
82703;SDS011;72427;42.000;21.464;2024-03-08T10:14:10;16.02;;;11.27;;
82703;SDS011;72427;42.000;21.464;2024-03-08T10:16:37;16.50;;;11.77;;
82703;SDS011;72427;42.000;21.464;2024-03-08T10:19:04;17.67;;;11.52;;
82703;SDS011;72427;42.000;21.464;2024-03-08T10:21:31;15.77;;;10.93;;
82703;SDS011;72427;42.000;21.464;2024-03-08T10:23:58;17.77;;;12.40;;
82703;SDS011;72427;42.000;21.464;2024-03-08T10:26:24;16.77;;;11.25;;
82703;SDS011;72427;42.000;21.464;2024-03-08T10:28:51;15.32;;;11.50;;
82703;SDS011;72427;42.000;21.464;2024-03-08T10:31:20;16.20;;;11.15;;
82703;SDS011;72427;42.000;21.464;2024-03-08T10:33:46;17.52;;;11.75;;
82703;SDS011;72427;42.000;21.464;2024-03-08T10:36:14;15.50;;;10.13;;
82703;SDS011;72427;42.000;21.464;2024-03-08T10:38:41;14.75;;;9.15;;
82703;SDS011;72427;42.000;21.464;2024-03-08T10:41:11;13.35;;;9.23;;
82703;SDS011;72427;42.000;21.464;2024-03-08T10:49:07;16.27;;;9.63;;
82703;SDS011;72427;42.000;21.464;2024-03-08T10:51:38;13.40;;;9.32;;
82703;SDS011;72427;42.000;21.464;2024-03-08T10:54:06;11.77;;;9.00;;
82703;SDS011;72427;42.000;21.464;2024-03-08T10:56:33;14.45;;;8.35;;
82703;SDS011;72427;42.000;21.464;2024-03-08T10:58:59;14.18;;;9.00;;
82703;SDS011;72427;42.000;21.464;2024-03-08T11:01:25;12.65;;;9.15;;
82703;SDS011;72427;42.000;21.464;2024-03-08T11:03:52;12.73;;;9.18;;
82703;SDS011;72427;42.000;21.464;2024-03-08T11:06:22;16.52;;;8.77;;
82703;SDS011;72427;42.000;21.464;2024-03-08T11:08:48;11.60;;;7.82;;
82703;SDS011;72427;42.000;21.464;2024-03-08T11:11:38;12.40;;;8.15;;
82703;SDS011;72427;42.000;21.464;2024-03-08T11:14:07;15.30;;;8.25;;
82703;SDS011;72427;42.000;21.464;2024-03-08T11:16:53;11.18;;;7.60;;
82703;SDS011;72427;42.000;21.464;2024-03-08T11:21:45;10.77;;;7.40;;
82703;SDS011;72427;42.000;21.464;2024-03-08T11:24:12;10.05;;;7.18;;
82703;SDS011;72427;42.000;21.464;2024-03-08T11:26:39;10.70;;;6.90;;
82703;SDS011;72427;42.000;21.464;2024-03-08T11:31:50;9.57;;;6.80;;
82703;SDS011;72427;42.000;21.464;2024-03-08T11:34:16;9.80;;;6.68;;
82703;SDS011;72427;42.000;21.464;2024-03-08T11:36:44;9.40;;;7.10;;
82703;SDS011;72427;42.000;21.464;2024-03-08T11:39:13;10.15;;;6.82;;
82703;SDS011;72427;42.000;21.464;2024-03-08T11:41:40;10.55;;;6.85;;
82703;SDS011;72427;42.000;21.464;2024-03-08T11:44:10;9.93;;;5.85;;
82703;SDS011;72427;42.000;21.464;2024-03-08T11:46:41;9.18;;;5.40;;
82703;SDS011;72427;42.000;21.464;2024-03-08T11:49:11;8.82;;;5.53;;
82703;SDS011;72427;42.000;21.464;2024-03-08T11:51:37;8.80;;;5.28;;
82703;SDS011;72427;42.000;21.464;2024-03-08T11:54:03;10.40;;;6.38;;
82703;SDS011;72427;42.000;21.464;2024-03-08T11:56:31;7.55;;;4.93;;
82703;SDS011;72427;42.000;21.464;2024-03-08T11:58:57;8.02;;;5.15;;
82703;SDS011;72427;42.000;21.464;2024-03-08T12:01:24;7.13;;;4.50;;
82703;SDS011;72427;42.000;21.464;2024-03-08T12:03:54;8.65;;;5.38;;
82703;SDS011;72427;42.000;21.464;2024-03-08T12:06:23;7.57;;;3.85;;
82703;SDS011;72427;42.000;21.464;2024-03-08T12:08:49;8.68;;;4.22;;
82703;SDS011;72427;42.000;21.464;2024-03-08T12:11:19;9.02;;;4.88;;
82703;SDS011;72427;42.000;21.464;2024-03-08T12:13:48;11.23;;;5.97;;
82703;SDS011;72427;42.000;21.464;2024-03-08T12:16:16;7.13;;;4.55;;
82703;SDS011;72427;42.000;21.464;2024-03-08T12:18:50;7.78;;;4.38;;
82703;SDS011;72427;42.000;21.464;2024-03-08T12:21:17;6.63;;;4.43;;
82703;SDS011;72427;42.000;21.464;2024-03-08T12:23:47;7.00;;;4.53;;
82703;SDS011;72427;42.000;21.464;2024-03-08T12:26:17;6.28;;;4.15;;
82703;SDS011;72427;42.000;21.464;2024-03-08T12:28:43;6.22;;;3.45;;
82703;SDS011;72427;42.000;21.464;2024-03-08T12:31:13;6.82;;;3.42;;
82703;SDS011;72427;42.000;21.464;2024-03-08T12:33:54;7.45;;;3.60;;
82703;SDS011;72427;42.000;21.464;2024-03-08T12:36:24;5.78;;;3.72;;
82703;SDS011;72427;42.000;21.464;2024-03-08T12:38:53;5.55;;;3.22;;
82703;SDS011;72427;42.000;21.464;2024-03-08T12:41:20;6.60;;;3.33;;
82703;SDS011;72427;42.000;21.464;2024-03-08T12:43:46;5.60;;;2.50;;
82703;SDS011;72427;42.000;21.464;2024-03-08T12:46:16;5.30;;;2.63;;
82703;SDS011;72427;42.000;21.464;2024-03-08T12:48:42;5.03;;;2.25;;
82703;SDS011;72427;42.000;21.464;2024-03-08T12:51:12;5.90;;;3.28;;
82703;SDS011;72427;42.000;21.464;2024-03-08T12:53:38;5.85;;;3.10;;
82703;SDS011;72427;42.000;21.464;2024-03-08T12:56:09;6.18;;;3.78;;
82703;SDS011;72427;42.000;21.464;2024-03-08T12:58:35;6.25;;;3.60;;
82703;SDS011;72427;42.000;21.464;2024-03-08T13:01:05;6.50;;;3.25;;
82703;SDS011;72427;42.000;21.464;2024-03-08T13:03:32;7.60;;;3.95;;
82703;SDS011;72427;42.000;21.464;2024-03-08T13:06:00;5.32;;;3.30;;
82703;SDS011;72427;42.000;21.464;2024-03-08T13:08:26;5.88;;;3.33;;
82703;SDS011;72427;42.000;21.464;2024-03-08T13:10:54;6.63;;;3.10;;
82703;SDS011;72427;42.000;21.464;2024-03-08T13:13:20;6.10;;;3.13;;
82703;SDS011;72427;42.000;21.464;2024-03-08T13:15:47;7.22;;;3.40;;
82703;SDS011;72427;42.000;21.464;2024-03-08T13:18:14;6.30;;;3.00;;
82703;SDS011;72427;42.000;21.464;2024-03-08T13:20:41;5.55;;;2.90;;
82703;SDS011;72427;42.000;21.464;2024-03-08T13:23:09;6.75;;;2.75;;
82703;SDS011;72427;42.000;21.464;2024-03-08T13:25:35;6.75;;;3.58;;
82703;SDS011;72427;42.000;21.464;2024-03-08T13:28:03;6.13;;;3.08;;
82703;SDS011;72427;42.000;21.464;2024-03-08T13:30:31;5.57;;;2.97;;
82703;SDS011;72427;42.000;21.464;2024-03-08T13:32:57;5.75;;;2.60;;
82703;SDS011;72427;42.000;21.464;2024-03-08T13:35:23;6.50;;;3.03;;
82703;SDS011;72427;42.000;21.464;2024-03-08T13:37:51;6.35;;;2.90;;
82703;SDS011;72427;42.000;21.464;2024-03-08T13:40:18;6.40;;;2.58;;
82703;SDS011;72427;42.000;21.464;2024-03-08T13:42:45;7.18;;;2.90;;
82703;SDS011;72427;42.000;21.464;2024-03-08T13:45:12;6.60;;;3.13;;
82703;SDS011;72427;42.000;21.464;2024-03-08T13:47:39;5.07;;;2.55;;
82703;SDS011;72427;42.000;21.464;2024-03-08T13:50:08;5.70;;;2.78;;
82703;SDS011;72427;42.000;21.464;2024-03-08T13:52:38;5.57;;;2.70;;
82703;SDS011;72427;42.000;21.464;2024-03-08T13:55:05;5.75;;;2.72;;
82703;SDS011;72427;42.000;21.464;2024-03-08T13:57:31;5.10;;;2.60;;
82703;SDS011;72427;42.000;21.464;2024-03-08T13:59:58;5.78;;;3.00;;
82703;SDS011;72427;42.000;21.464;2024-03-08T14:02:24;5.25;;;2.65;;
82703;SDS011;72427;42.000;21.464;2024-03-08T14:04:56;5.63;;;2.78;;
82703;SDS011;72427;42.000;21.464;2024-03-08T14:07:22;6.43;;;2.72;;
82703;SDS011;72427;42.000;21.464;2024-03-08T14:09:49;5.65;;;2.83;;
82703;SDS011;72427;42.000;21.464;2024-03-08T14:12:17;5.25;;;2.70;;
82703;SDS011;72427;42.000;21.464;2024-03-08T14:14:44;6.38;;;2.78;;
82703;SDS011;72427;42.000;21.464;2024-03-08T14:17:10;5.70;;;2.75;;
82703;SDS011;72427;42.000;21.464;2024-03-08T14:19:41;6.32;;;2.72;;
82703;SDS011;72427;42.000;21.464;2024-03-08T14:22:07;6.10;;;2.90;;
82703;SDS011;72427;42.000;21.464;2024-03-08T14:24:36;4.78;;;2.70;;
82703;SDS011;72427;42.000;21.464;2024-03-08T14:27:02;5.07;;;2.70;;
82703;SDS011;72427;42.000;21.464;2024-03-08T14:29:29;5.55;;;2.80;;
82703;SDS011;72427;42.000;21.464;2024-03-08T14:31:57;6.68;;;2.92;;
82703;SDS011;72427;42.000;21.464;2024-03-08T14:34:24;7.15;;;3.25;;
82703;SDS011;72427;42.000;21.464;2024-03-08T14:36:54;5.97;;;2.97;;
82703;SDS011;72427;42.000;21.464;2024-03-08T14:39:20;5.47;;;3.05;;